Time;durP1;ratioP1;P1;durP2;ratioP2;P2;SDS_P1;SDS_P2;PMS_P1;PMS_P2;Temp;Humidity;BMP_temperature;BMP_pressure;BME280_temperature;BME280_humidity;BME280_pressure;Samples;Min_cycle;Max_cycle;Signal;HPM_P1;HPM_P2
2022/05/19 00:01:22;;;;;;;;;;;24.00;51.20;;;;;;6178080;28;19968;-54
2022/05/19 00:04:24;;;;;;;;;;;23.90;51.10;;;;;;6177740;28;20024;-51
2022/05/19 00:07:25;;;;;;;;;;;23.90;51.10;;;;;;6158425;28;19925;-55
2022/05/19 00:10:27;;;;;;;;;;;23.60;51.00;;;;;;6175249;28;20014;-52
2022/05/19 00:13:32;;;;;;;;;;;23.40;50.90;;;;;;6175200;28;20820;-52
2022/05/19 00:16:34;;;;;;;;;;;23.70;51.00;;;;;;6172060;28;19951;-55
2022/05/19 00:19:36;;;;;;;;;;;23.70;51.10;;;;;;6161334;28;19921;-52
2022/05/19 00:22:37;;;;;;;;;;;23.80;51.20;;;;;;6178848;28;20278;-53
2022/05/19 00:25:39;;;;;;;;;;;23.70;51.20;;;;;;6180643;28;19920;-54
2022/05/19 00:28:40;;;;;;;;;;;23.30;51.00;;;;;;6175268;28;19920;-53
2022/05/19 00:31:43;;;;;;;;;;;23.60;51.20;;;;;;6187187;28;19925;-54
2022/05/19 00:34:44;;;;;;;;;;;23.60;51.20;;;;;;6184380;28;20097;-53
2022/05/19 00:37:45;;;;;;;;;;;23.80;51.40;;;;;;6188128;28;19932;-51
2022/05/19 00:40:48;;;;;;;;;;;23.30;51.20;;;;;;6171261;28;20765;-51
2022/05/19 00:43:56;;;;;;;;;;;23.50;51.20;;;;;;6163968;28;19936;-53
2022/05/19 00:46:58;;;;;;;;;;;23.50;51.80;;;;;;6182052;28;19928;-51
2022/05/19 00:50:01;;;;;;;;;;;23.60;51.30;;;;;;6190166;28;20790;-51
2022/05/19 00:53:05;;;;;;;;;;;23.20;51.20;;;;;;6186126;28;19930;-51
2022/05/19 00:56:10;;;;;;;;;;;23.40;51.40;;;;;;6184987;28;20902;-51
2022/05/19 00:59:14;;;;;;;;;;;23.10;51.30;;;;;;6186133;28;19924;-55
2022/05/19 01:02:19;;;;;;;;;;;23.50;51.50;;;;;;6186505;28;19932;-52
2022/05/19 01:05:24;;;;;;;;;;;23.50;51.60;;;;;;6185401;28;19936;-52
2022/05/19 01:08:29;;;;;;;;;;;23.40;51.50;;;;;;6187553;28;20732;-51
2022/05/19 01:11:31;;;;;;;;;;;23.30;51.50;;;;;;6173116;28;19927;-51
2022/05/19 01:14:33;;;;;;;;;;;23.50;51.70;;;;;;6188430;28;19929;-52
2022/05/19 01:17:36;;;;;;;;;;;23.20;51.50;;;;;;6186649;28;19932;-52
2022/05/19 01:20:38;;;;;;;;;;;23.40;51.70;;;;;;6174340;28;19964;-52
2022/05/19 01:23:44;;;;;;;;;;;23.20;51.60;;;;;;6185917;28;20031;-50
2022/05/19 01:26:48;;;;;;;;;;;23.40;51.70;;;;;;6184138;28;19921;-50
2022/05/19 01:29:49;;;;;;;;;;;23.10;51.60;;;;;;6191302;28;19929;-51
2022/05/19 01:32:52;;;;;;;;;;;23.00;51.70;;;;;;6185160;28;19924;-52
2022/05/19 01:35:54;;;;;;;;;;;23.00;51.60;;;;;;6174372;28;20832;-51
2022/05/19 01:38:57;;;;;;;;;;;23.30;51.90;;;;;;6181883;28;19921;-52
2022/05/19 01:42:17;;;;;;;;;;;22.90;51.60;;;;;;6195157;28;20056;-49
2022/05/19 01:45:27;;;;;;;;;;;23.10;51.70;;;;;;6185617;28;20062;-51
2022/05/19 01:48:33;;;;;;;;;;;23.00;51.60;;;;;;6187247;28;19968;-53
2022/05/19 01:51:39;;;;;;;;;;;23.00;51.60;;;;;;6191427;28;20173;-51
2022/05/19 01:54:43;;;;;;;;;;;22.90;51.50;;;;;;6187503;28;20063;-50
2022/05/19 01:57:48;;;;;;;;;;;23.30;51.90;;;;;;6176114;28;20699;-52
2022/05/19 02:00:53;;;;;;;;;;;23.10;51.70;;;;;;6190907;28;19932;-53
2022/05/19 02:03:57;;;;;;;;;;;23.30;51.90;;;;;;6194031;28;19929;-53
2022/05/19 02:07:01;;;;;;;;;;;23.40;51.80;;;;;;6193506;28;20047;-54
2022/05/19 02:10:05;;;;;;;;;;;23.50;52.00;;;;;;6184404;28;20127;-52
2022/05/19 02:13:08;;;;;;;;;;;23.20;51.80;;;;;;6179715;28;20066;-51
2022/05/19 02:16:12;;;;;;;;;;;23.10;51.70;;;;;;6194219;28;19965;-51
2022/05/19 02:19:16;;;;;;;;;;;22.90;51.60;;;;;;6191465;28;20033;-52
2022/05/19 02:22:19;;;;;;;;;;;23.30;51.90;;;;;;6191054;28;19971;-61
2022/05/19 02:25:22;;;;;;;;;;;23.20;51.70;;;;;;6191479;28;19964;-51
2022/05/19 02:28:27;;;;;;;;;;;23.40;51.80;;;;;;6191657;28;19931;-52
2022/05/19 02:31:28;;;;;;;;;;;23.30;51.80;;;;;;6171890;28;20338;-50
2022/05/19 02:34:30;;;;;;;;;;;23.30;51.80;;;;;;6179164;28;19930;-51
2022/05/19 02:37:31;;;;;;;;;;;23.00;51.60;;;;;;6191799;28;20809;-54
2022/05/19 02:40:34;;;;;;;;;;;23.40;51.90;;;;;;6174451;28;19964;-53
2022/05/19 02:43:36;;;;;;;;;;;23.00;51.60;;;;;;6175198;28;19925;-54
2022/05/19 02:46:37;;;;;;;;;;;23.10;51.70;;;;;;6172112;28;19925;-56
2022/05/19 02:49:39;;;;;;;;;;;23.10;51.70;;;;;;6184995;28;19925;-51
2022/05/19 02:52:40;;;;;;;;;;;23.00;51.70;;;;;;6169460;28;19925;-54
2022/05/19 02:55:42;;;;;;;;;;;23.00;51.70;;;;;;6180927;28;19932;-51
2022/05/19 02:58:44;;;;;;;;;;;23.70;52.10;;;;;;6173888;28;21073;-52
2022/05/19 03:01:46;;;;;;;;;;;23.10;51.70;;;;;;6188415;28;20044;-53
2022/05/19 03:04:47;;;;;;;;;;;23.50;52.00;;;;;;6190992;28;20810;-51
2022/05/19 03:07:49;;;;;;;;;;;23.40;51.90;;;;;;6191438;28;19976;-53
2022/05/19 03:10:50;;;;;;;;;;;23.00;51.70;;;;;;6196905;28;20894;-51
2022/05/19 03:13:52;;;;;;;;;;;23.00;51.80;;;;;;6193093;28;20048;-54
2022/05/19 03:16:53;;;;;;;;;;;23.20;51.80;;;;;;6194033;28;19956;-54
2022/05/19 03:19:55;;;;;;;;;;;23.20;51.80;;;;;;6193084;28;20857;-50
2022/05/19 03:22:57;;;;;;;;;;;23.20;51.80;;;;;;6173152;28;19921;-53
2022/05/19 03:25:58;;;;;;;;;;;23.10;51.90;;;;;;6189632;28;20039;-50
2022/05/19 03:29:00;;;;;;;;;;;23.40;52.00;;;;;;6190010;28;19998;-52
2022/05/19 03:32:02;;;;;;;;;;;23.40;52.00;;;;;;6189930;28;19929;-52
2022/05/19 03:35:03;;;;;;;;;;;23.30;52.00;;;;;;6189466;28;19925;-53
2022/05/19 03:38:05;;;;;;;;;;;23.40;52.00;;;;;;6191619;28;20791;-53
2022/05/19 03:41:06;;;;;;;;;;;23.20;51.90;;;;;;6191398;28;19971;-54
2022/05/19 03:44:08;;;;;;;;;;;23.30;52.10;;;;;;6192086;28;19925;-52
2022/05/19 03:47:10;;;;;;;;;;;23.10;51.90;;;;;;6187344;28;20929;-51
2022/05/19 03:50:11;;;;;;;;;;;22.90;51.90;;;;;;6181737;28;20031;-53
2022/05/19 03:53:14;;;;;;;;;;;23.30;52.10;;;;;;6190491;28;19925;-49
2022/05/19 03:56:15;;;;;;;;;;;22.90;52.00;;;;;;6189493;28;20038;-55
2022/05/19 03:59:19;;;;;;;;;;;23.10;52.20;;;;;;6178920;28;19921;-51
2022/05/19 04:02:21;;;;;;;;;;;22.80;52.00;;;;;;6185080;28;19941;-52
2022/05/19 04:05:36;;;;;;;;;;;23.20;52.30;;;;;;6190881;28;20710;-52
2022/05/19 04:08:38;;;;;;;;;;;23.30;52.40;;;;;;6191277;28;19920;-50
2022/05/19 04:11:39;;;;;;;;;;;23.20;52.40;;;;;;6192146;28;19929;-53
2022/05/19 04:14:41;;;;;;;;;;;23.10;52.20;;;;;;6188990;28;20043;-49
2022/05/19 04:17:43;;;;;;;;;;;22.90;52.20;;;;;;6179887;28;19965;-53
2022/05/19 04:20:44;;;;;;;;;;;23.30;52.30;;;;;;6185208;28;19937;-49
2022/05/19 04:23:46;;;;;;;;;;;23.20;52.40;;;;;;6187166;28;20609;-54
2022/05/19 04:26:49;;;;;;;;;;;22.60;52.20;;;;;;6185183;28;20035;-58
2022/05/19 04:29:50;;;;;;;;;;;22.90;52.50;;;;;;6188334;28;19960;-51
2022/05/19 04:32:52;;;;;;;;;;;22.60;52.30;;;;;;6180486;28;19929;-53
2022/05/19 04:35:53;;;;;;;;;;;23.10;52.70;;;;;;6186444;28;20092;-49
2022/05/19 04:38:55;;;;;;;;;;;23.00;52.70;;;;;;6186682;28;19933;-52
2022/05/19 04:41:56;;;;;;;;;;;22.60;52.60;;;;;;6184295;28;19931;-54
2022/05/19 04:44:58;;;;;;;;;;;22.60;52.90;;;;;;6184942;28;19922;-49
2022/05/19 04:47:59;;;;;;;;;;;22.90;52.90;;;;;;6184160;28;19929;-51
2022/05/19 04:51:02;;;;;;;;;;;23.10;53.20;;;;;;6171450;28;19964;-54
2022/05/19 04:54:03;;;;;;;;;;;23.00;53.20;;;;;;6184453;28;19925;-52
2022/05/19 04:57:07;;;;;;;;;;;22.60;53.10;;;;;;6186308;28;19928;-52
2022/05/19 05:00:10;;;;;;;;;;;23.00;53.10;;;;;;6177588;28;20015;-54
2022/05/19 05:03:11;;;;;;;;;;;23.20;53.20;;;;;;6166620;28;20273;-52
2022/05/19 05:06:13;;;;;;;;;;;22.70;52.90;;;;;;6177269;28;19959;-52
2022/05/19 05:09:15;;;;;;;;;;;22.70;52.80;;;;;;6180402;28;20117;-52
2022/05/19 05:12:16;;;;;;;;;;;22.60;52.90;;;;;;6184388;28;20588;-53
2022/05/19 05:15:18;;;;;;;;;;;22.80;52.90;;;;;;6183580;28;19921;-49
2022/05/19 05:18:20;;;;;;;;;;;22.90;52.90;;;;;;6186323;28;19971;-53
2022/05/19 05:21:21;;;;;;;;;;;23.00;52.90;;;;;;6184979;28;19929;-52
2022/05/19 05:24:23;;;;;;;;;;;22.90;53.00;;;;;;6185375;28;20915;-51
2022/05/19 05:27:24;;;;;;;;;;;23.10;53.20;;;;;;6186424;28;19960;-53
2022/05/19 05:30:27;;;;;;;;;;;22.90;53.10;;;;;;6182431;28;19929;-52
2022/05/19 05:33:31;;;;;;;;;;;22.40;52.80;;;;;;6184914;28;20589;-49
2022/05/19 05:36:33;;;;;;;;;;;23.00;53.20;;;;;;6179632;28;19975;-52
2022/05/19 05:39:34;;;;;;;;;;;23.20;53.30;;;;;;6164928;28;19936;-53
2022/05/19 05:42:36;;;;;;;;;;;23.10;53.30;;;;;;6165665;28;19925;-48
2022/05/19 05:45:40;;;;;;;;;;;22.80;53.10;;;;;;6172268;28;19929;-50
2022/05/19 05:48:42;;;;;;;;;;;23.00;53.30;;;;;;6163977;28;19983;-52
2022/05/19 05:51:44;;;;;;;;;;;22.70;52.90;;;;;;6187544;28;20010;-50
2022/05/19 05:54:45;;;;;;;;;;;23.10;53.20;;;;;;6185205;28;19968;-49
2022/05/19 05:57:46;;;;;;;;;;;22.60;53.00;;;;;;6169453;28;19929;-49
2022/05/19 06:00:48;;;;;;;;;;;23.00;53.30;;;;;;6170563;28;19933;-48
2022/05/19 06:03:50;;;;;;;;;;;22.80;52.80;;;;;;6145588;28;20040;-51
2022/05/19 06:06:51;;;;;;;;;;;23.00;53.00;;;;;;6170984;28;19968;-51
2022/05/19 06:09:53;;;;;;;;;;;23.20;53.20;;;;;;6163323;28;20429;-53
2022/05/19 06:12:54;;;;;;;;;;;23.00;53.00;;;;;;6172302;28;20882;-51
2022/05/19 06:15:56;;;;;;;;;;;23.10;53.20;;;;;;6161092;28;19964;-51
2022/05/19 06:18:58;;;;;;;;;;;22.80;53.10;;;;;;6169166;28;19933;-54
2022/05/19 06:21:59;;;;;;;;;;;23.00;53.20;;;;;;6164999;28;19972;-50
2022/05/19 06:25:00;;;;;;;;;;;22.90;53.20;;;;;;6145746;28;20044;-53
2022/05/19 06:28:02;;;;;;;;;;;23.00;53.20;;;;;;6160900;28;20051;-53
2022/05/19 06:31:05;;;;;;;;;;;22.90;53.10;;;;;;6149870;28;19944;-54
2022/05/19 06:34:06;;;;;;;;;;;23.10;53.20;;;;;;6143075;28;19960;-54
2022/05/19 06:37:08;;;;;;;;;;;23.40;53.40;;;;;;6136559;28;19980;-50
2022/05/19 06:40:10;;;;;;;;;;;23.10;53.30;;;;;;6133068;28;20971;-55
2022/05/19 06:43:13;;;;;;;;;;;22.70;53.00;;;;;;6148346;28;19973;-56
2022/05/19 06:46:17;;;;;;;;;;;22.80;53.00;;;;;;6118225;28;21100;-52
2022/05/19 06:49:18;;;;;;;;;;;23.00;53.10;;;;;;6095912;28;19968;-52
2022/05/19 06:52:21;;;;;;;;;;;23.10;53.30;;;;;;6070833;28;19945;-54
2022/05/19 06:55:23;;;;;;;;;;;22.60;52.90;;;;;;6066946;28;19964;-54
2022/05/19 06:58:25;;;;;;;;;;;23.10;53.10;;;;;;6063929;28;19989;-52
2022/05/19 07:01:27;;;;;;;;;;;23.10;53.20;;;;;;6019373;28;21166;-51
2022/05/19 07:04:28;;;;;;;;;;;22.90;53.00;;;;;;6032222;28;20063;-54
2022/05/19 07:07:29;;;;;;;;;;;22.80;53.00;;;;;;5987982;28;20876;-54
2022/05/19 07:10:31;;;;;;;;;;;23.30;53.30;;;;;;5998377;28;20063;-52
2022/05/19 07:13:32;;;;;;;;;;;23.20;53.10;;;;;;5986245;28;19929;-52
2022/05/19 07:16:35;;;;;;;;;;;23.20;53.10;;;;;;6005954;28;20012;-49
2022/05/19 07:22:54;;;;;;;;;;;23.20;53.10;;;;;;6013662;28;19929;-53
2022/05/19 07:26:00;;;;;;;;;;;23.00;52.90;;;;;;5964741;28;21597;-50
2022/05/19 07:29:02;;;;;;;;;;;23.40;53.00;;;;;;5960783;28;21150;-50
2022/05/19 07:32:28;;;;;;;;;;;23.20;53.00;;;;;;5976173;28;20457;-50
2022/05/19 07:35:30;;;;;;;;;;;23.10;52.40;;;;;;5963415;28;19930;-48
2022/05/19 07:38:32;;;;;;;;;;;23.40;52.80;;;;;;5998394;28;19975;-49
2022/05/19 07:41:33;;;;;;;;;;;23.40;52.70;;;;;;5964827;28;21433;-52
2022/05/19 07:44:37;;;;;;;;;;;23.10;52.60;;;;;;5956705;28;20056;-50
2022/05/19 07:47:39;;;;;;;;;;;23.40;52.60;;;;;;5979620;28;19935;-58
2022/05/19 07:50:42;;;;;;;;;;;23.40;52.60;;;;;;5995771;28;20485;-54
2022/05/19 07:53:43;;;;;;;;;;;23.60;52.50;;;;;;5979622;28;20063;-54
2022/05/19 07:56:45;;;;;;;;;;;23.60;52.40;;;;;;5977127;28;19944;-49
2022/05/19 07:59:47;;;;;;;;;;;23.80;52.40;;;;;;5949571;28;21149;-55
2022/05/19 08:02:49;;;;;;;;;;;23.30;52.40;;;;;;5902502;28;21194;-52
2022/05/19 08:05:52;;;;;;;;;;;23.70;52.30;;;;;;5977845;28;19935;-50
2022/05/19 08:08:53;;;;;;;;;;;23.80;52.40;;;;;;5974388;28;19936;-48
2022/05/19 08:12:02;;;;;;;;;;;23.90;52.40;;;;;;5945947;28;19929;-54
2022/05/19 08:18:24;;;;;;;;;;;24.00;52.30;;;;;;5951329;28;19929;-51
2022/05/19 08:21:26;;;;;;;;;;;23.70;52.10;;;;;;5934245;28;21199;-50
2022/05/19 08:24:28;;;;;;;;;;;24.10;52.20;;;;;;5964303;28;21932;-54
2022/05/19 08:27:30;;;;;;;;;;;24.10;52.10;;;;;;5936129;28;19996;-49
2022/05/19 08:30:32;;;;;;;;;;;23.50;51.30;;;;;;5937975;28;19936;-52
2022/05/19 08:33:34;;;;;;;;;;;24.00;52.00;;;;;;5927056;28;19929;-53
2022/05/19 08:36:36;;;;;;;;;;;23.90;52.00;;;;;;5937986;28;20083;-53
2022/05/19 08:39:37;;;;;;;;;;;24.10;51.90;;;;;;5970103;28;19929;-51
2022/05/19 08:42:40;;;;;;;;;;;24.00;51.90;;;;;;5936048;28;19947;-51
2022/05/19 08:45:44;;;;;;;;;;;24.20;52.00;;;;;;5913845;28;19928;-52
2022/05/19 08:48:46;;;;;;;;;;;24.10;51.90;;;;;;5958211;28;19935;-49
2022/05/19 08:51:52;;;;;;;;;;;24.10;51.90;;;;;;5959017;28;19929;-52
2022/05/19 08:54:54;;;;;;;;;;;24.30;52.00;;;;;;5951431;28;19933;-53
2022/05/19 08:57:59;;;;;;;;;;;24.30;52.10;;;;;;5963503;28;19929;-49
2022/05/19 09:01:03;;;;;;;;;;;24.30;52.10;;;;;;5946219;28;19992;-51
2022/05/19 09:04:13;;;;;;;;;;;24.30;52.00;;;;;;5940746;28;20006;-50
2022/05/19 09:10:43;;;;;;;;;;;24.40;51.90;;;;;;5949290;28;21793;-49
2022/05/19 09:13:51;;;;;;;;;;;24.60;52.00;;;;;;5949335;28;20002;-55
2022/05/19 09:16:55;;;;;;;;;;;24.40;51.90;;;;;;5939180;28;19933;-51
2022/05/19 09:20:05;;;;;;;;;;;24.50;52.00;;;;;;5939883;28;19929;-54
2022/05/19 09:23:07;;;;;;;;;;;24.40;51.80;;;;;;5938902;28;21909;-55
2022/05/19 09:26:22;;;;;;;;;;;24.60;51.90;;;;;;5966976;28;20150;-51
2022/05/19 09:29:28;;;;;;;;;;;24.50;51.90;;;;;;5974073;28;20018;-50
2022/05/19 09:32:39;;;;;;;;;;;24.60;52.00;;;;;;5922695;28;22705;-50
2022/05/19 09:35:42;;;;;;;;;;;24.50;51.80;;;;;;5964072;28;19936;-50
2022/05/19 09:38:45;;;;;;;;;;;24.50;51.30;;;;;;5935938;28;19935;-52
2022/05/19 09:41:51;;;;;;;;;;;24.60;51.80;;;;;;5955221;28;20716;-51
2022/05/19 09:44:55;;;;;;;;;;;24.60;51.80;;;;;;5930728;28;19936;-53
2022/05/19 09:47:58;;;;;;;;;;;24.60;51.80;;;;;;5949419;28;20749;-52
2022/05/19 09:51:02;;;;;;;;;;;24.50;51.70;;;;;;5953779;28;19928;-52
2022/05/19 09:54:04;;;;;;;;;;;24.70;51.80;;;;;;5944537;28;20091;-53
2022/05/19 09:57:11;;;;;;;;;;;24.80;51.90;;;;;;5960159;28;19929;-49
2022/05/19 10:00:18;;;;;;;;;;;24.60;51.80;;;;;;5942999;28;19935;-49
2022/05/19 10:03:22;;;;;;;;;;;24.60;51.80;;;;;;5950118;28;19968;-51
2022/05/19 10:06:33;;;;;;;;;;;24.70;52.00;;;;;;5967615;28;19936;-53
2022/05/19 10:09:41;;;;;;;;;;;24.80;51.90;;;;;;5956412;28;20045;-52
2022/05/19 10:12:44;;;;;;;;;;;24.60;51.70;;;;;;5971459;28;20406;-53
2022/05/19 10:15:55;;;;;;;;;;;24.70;51.80;;;;;;5996845;28;19929;-55
2022/05/19 10:19:05;;;;;;;;;;;24.90;52.00;;;;;;6013900;28;20384;-53
2022/05/19 10:22:22;;;;;;;;;;;24.60;51.80;;;;;;6012580;28;20063;-51
2022/05/19 10:25:34;;;;;;;;;;;24.60;51.80;;;;;;5958069;28;20075;-51
2022/05/19 10:32:19;;;;;;;;;;;24.70;51.80;;;;;;6011020;28;20692;-51
2022/05/19 10:35:26;;;;;;;;;;;24.60;51.80;;;;;;6005854;28;21226;-51
2022/05/19 10:38:37;;;;;;;;;;;24.60;51.80;;;;;;6018615;28;19967;-51
2022/05/19 10:41:44;;;;;;;;;;;24.40;51.70;;;;;;6012245;28;20040;-52
2022/05/19 10:44:53;;;;;;;;;;;24.60;52.40;;;;;;6015597;28;20055;-53
2022/05/19 10:48:01;;;;;;;;;;;24.60;51.80;;;;;;6039075;28;19929;-52
2022/05/19 10:51:05;;;;;;;;;;;24.60;51.80;;;;;;6076552;28;19967;-52
2022/05/19 10:54:19;;;;;;;;;;;24.60;51.80;;;;;;6057655;28;19985;-49
2022/05/19 10:57:27;;;;;;;;;;;24.50;51.80;;;;;;6086384;28;19929;-52
2022/05/19 11:00:37;;;;;;;;;;;24.50;51.80;;;;;;6073687;28;19999;-49
2022/05/19 11:03:48;;;;;;;;;;;24.50;51.80;;;;;;6063337;28;20054;-48
2022/05/19 11:07:04;;;;;;;;;;;24.60;51.70;;;;;;6092853;28;19983;-50
2022/05/19 11:10:12;;;;;;;;;;;24.60;51.70;;;;;;6059394;28;20063;-51
2022/05/19 11:13:28;;;;;;;;;;;24.80;51.80;;;;;;6064427;28;21087;-51
2022/05/19 11:16:37;;;;;;;;;;;24.40;51.60;;;;;;6059900;28;21280;-52
2022/05/19 11:19:41;;;;;;;;;;;24.50;51.70;;;;;;6038574;28;20052;-54
2022/05/19 11:22:43;;;;;;;;;;;24.60;51.70;;;;;;6044060;28;19972;-50
2022/05/19 11:29:12;;;;;;;;;;;24.60;51.70;;;;;;6080903;28;19929;-49
2022/05/19 11:32:16;;;;;;;;;;;24.60;51.80;;;;;;6054190;28;19935;-49
2022/05/19 11:35:21;;;;;;;;;;;24.50;51.60;;;;;;6041850;28;20072;-51
2022/05/19 11:38:25;;;;;;;;;;;24.40;51.60;;;;;;6062669;28;19929;-54
2022/05/19 11:41:29;;;;;;;;;;;24.60;51.60;;;;;;6072574;28;19965;-50
2022/05/19 11:44:33;;;;;;;;;;;24.50;51.70;;;;;;6046765;28;19929;-52
2022/05/19 11:57:37;;;;;;;;;;;24.60;51.60;;;;;;5999402;28;19936;-50
2022/05/19 12:00:41;;;;;;;;;;;24.60;51.60;;;;;;5968628;28;19928;-55
2022/05/19 12:03:45;;;;;;;;;;;24.50;51.50;;;;;;5952021;28;20067;-51
2022/05/19 12:06:48;;;;;;;;;;;24.70;51.60;;;;;;5935139;28;21114;-51
2022/05/19 12:09:53;;;;;;;;;;;24.50;51.50;;;;;;5943439;28;19936;-50
2022/05/19 12:12:59;;;;;;;;;;;24.60;51.60;;;;;;5983678;28;19937;-51
2022/05/19 12:16:08;;;;;;;;;;;24.60;51.60;;;;;;6007873;28;19929;-50
2022/05/19 12:19:10;;;;;;;;;;;24.60;51.70;;;;;;6007236;28;20071;-55
2022/05/19 12:22:12;;;;;;;;;;;24.60;51.70;;;;;;6023994;28;19936;-53
2022/05/19 12:25:16;;;;;;;;;;;25.20;52.00;;;;;;5962285;28;21081;-55
2022/05/19 12:28:32;;;;;;;;;;;24.70;51.70;;;;;;5971681;28;19928;-49
2022/05/19 12:34:49;;;;;;;;;;;24.60;51.60;;;;;;5940052;28;19928;-55
2022/05/19 12:37:52;;;;;;;;;;;24.60;51.60;;;;;;5940202;28;19929;-56
2022/05/19 12:40:54;;;;;;;;;;;24.60;51.60;;;;;;5964876;28;20772;-53
2022/05/19 12:44:21;;;;;;;;;;;24.60;51.50;;;;;;5969950;28;20060;-50
2022/05/19 12:47:24;;;;;;;;;;;24.70;51.50;;;;;;5964555;28;20183;-55
2022/05/19 12:50:43;;;;;;;;;;;24.70;51.50;;;;;;5989858;28;23528;-53
2022/05/19 12:53:59;;;;;;;;;;;24.80;51.50;;;;;;5987604;28;20010;-53
2022/05/19 12:57:15;;;;;;;;;;;24.70;51.50;;;;;;5992337;28;21011;-54
2022/05/19 13:00:19;;;;;;;;;;;24.70;51.50;;;;;;5925230;28;20071;-55
2022/05/19 13:03:24;;;;;;;;;;;24.70;51.50;;;;;;5939373;28;22252;-52
2022/05/19 13:06:26;;;;;;;;;;;24.80;52.10;;;;;;5904464;28;20705;-55
2022/05/19 13:09:29;;;;;;;;;;;24.70;51.40;;;;;;5968167;28;20067;-52
2022/05/19 13:12:44;;;;;;;;;;;24.80;51.40;;;;;;5983663;28;19935;-51
2022/05/19 13:16:12;;;;;;;;;;;24.80;51.40;;;;;;5964487;28;19936;-51
2022/05/19 13:19:15;;;;;;;;;;;24.90;51.50;;;;;;5979711;28;20052;-53
2022/05/19 13:22:21;;;;;;;;;;;24.80;51.40;;;;;;5964595;28;20023;-55
2022/05/19 13:25:22;;;;;;;;;;;24.90;51.50;;;;;;5987030;28;20082;-48
2022/05/19 13:31:37;;;;;;;;;;;24.80;51.40;;;;;;5941217;28;19935;-54
2022/05/19 13:34:40;;;;;;;;;;;24.90;51.40;;;;;;5925826;28;19929;-54
2022/05/19 13:37:46;;;;;;;;;;;24.90;51.40;;;;;;5946341;28;20022;-55
2022/05/19 13:40:48;;;;;;;;;;;24.90;51.30;;;;;;5929304;28;20031;-56
2022/05/19 13:43:50;;;;;;;;;;;24.90;51.30;;;;;;5948628;28;19930;-56
2022/05/19 13:46:52;;;;;;;;;;;24.90;51.30;;;;;;5943704;28;20247;-54
2022/05/19 13:49:56;;;;;;;;;;;24.90;51.30;;;;;;5970584;28;19932;-50
2022/05/19 13:52:58;;;;;;;;;;;24.90;51.30;;;;;;5940835;28;20011;-55
2022/05/19 13:56:00;;;;;;;;;;;24.90;51.30;;;;;;5911502;28;19929;-54
2022/05/19 13:59:01;;;;;;;;;;;24.90;51.30;;;;;;5929120;28;20879;-53
2022/05/19 14:02:06;;;;;;;;;;;24.60;51.10;;;;;;5893828;28;19979;-54
2022/05/19 14:05:10;;;;;;;;;;;25.00;51.30;;;;;;5921958;28;19937;-52
2022/05/19 14:08:13;;;;;;;;;;;24.90;51.20;;;;;;5937123;28;19935;-52
2022/05/19 14:11:35;;;;;;;;;;;25.00;51.30;;;;;;5930180;28;20043;-52
2022/05/19 14:14:37;;;;;;;;;;;25.10;51.30;;;;;;5947544;28;19967;-54
2022/05/19 14:18:10;;;;;;;;;;;25.00;51.20;;;;;;5979528;28;19929;-54
2022/05/19 14:21:14;;;;;;;;;;;25.10;51.30;;;;;;5987787;28;19933;-51
2022/05/19 14:24:17;;;;;;;;;;;24.90;51.10;;;;;;5995660;28;19935;-51
2022/05/19 14:27:20;;;;;;;;;;;24.80;51.10;;;;;;5980220;28;19936;-51
2022/05/19 14:30:27;;;;;;;;;;;24.90;51.20;;;;;;5984098;28;20021;-54
2022/05/19 14:33:36;;;;;;;;;;;24.90;51.20;;;;;;5961090;28;20048;-55
2022/05/19 14:36:41;;;;;;;;;;;24.90;51.20;;;;;;5980426;28;19929;-51
2022/05/19 14:39:45;;;;;;;;;;;24.90;51.30;;;;;;5998964;28;19928;-53
2022/05/19 14:46:09;;;;;;;;;;;24.80;51.20;;;;;;5996761;28;19936;-53
2022/05/19 14:49:12;;;;;;;;;;;24.90;51.20;;;;;;5988312;28;19964;-55
2022/05/19 14:52:16;;;;;;;;;;;24.90;51.20;;;;;;5977343;28;19929;-54
2022/05/19 14:55:22;;;;;;;;;;;24.80;51.20;;;;;;5951467;28;19933;-58
2022/05/19 14:58:30;;;;;;;;;;;24.80;51.20;;;;;;5960200;28;20011;-56
2022/05/19 15:01:31;;;;;;;;;;;24.60;51.70;;;;;;5965276;28;19935;-52
2022/05/19 15:04:33;;;;;;;;;;;24.80;51.20;;;;;;5979439;28;19955;-54
2022/05/19 15:07:39;;;;;;;;;;;24.80;51.20;;;;;;5969968;28;20063;-53
2022/05/19 15:10:41;;;;;;;;;;;24.60;50.50;;;;;;5996605;28;19929;-53
2022/05/19 15:13:42;;;;;;;;;;;24.80;51.20;;;;;;5976645;28;19933;-55
2022/05/19 15:16:44;;;;;;;;;;;24.70;51.10;;;;;;5962383;28;20080;-52
2022/05/19 15:19:48;;;;;;;;;;;25.00;51.30;;;;;;5952234;28;19929;-57
2022/05/19 15:22:51;;;;;;;;;;;24.90;51.20;;;;;;5983120;28;20119;-55
2022/05/19 15:25:52;;;;;;;;;;;24.90;51.20;;;;;;5950398;28;21526;-54
2022/05/19 15:28:54;;;;;;;;;;;25.00;51.20;;;;;;5991148;28;21005;-54
2022/05/19 15:31:55;;;;;;;;;;;24.90;51.20;;;;;;5976908;28;20194;-57
2022/05/19 15:34:57;;;;;;;;;;;24.90;51.20;;;;;;5979255;28;20451;-57
2022/05/19 15:38:06;;;;;;;;;;;24.80;51.10;;;;;;5985807;28;20335;-51
2022/05/19 15:41:07;;;;;;;;;;;24.80;51.10;;;;;;5999476;28;20157;-56
2022/05/19 15:44:09;;;;;;;;;;;24.90;51.20;;;;;;6022870;28;19936;-63
2022/05/19 15:47:14;;;;;;;;;;;24.70;51.00;;;;;;6029759;28;19933;-47
2022/05/19 15:50:17;;;;;;;;;;;24.80;51.10;;;;;;6045322;28;21876;-51
2022/05/19 15:53:20;;;;;;;;;;;24.90;51.20;;;;;;6057178;28;22363;-52
2022/05/19 15:56:21;;;;;;;;;;;24.80;51.20;;;;;;6057092;28;20052;-51
2022/05/19 15:59:23;;;;;;;;;;;24.70;51.10;;;;;;6056744;28;21895;-52
2022/05/19 16:02:27;;;;;;;;;;;24.80;51.20;;;;;;6056804;28;19929;-52
2022/05/19 16:05:29;;;;;;;;;;;24.90;51.20;;;;;;6058454;28;20122;-53
2022/05/19 16:08:31;;;;;;;;;;;24.80;51.20;;;;;;6076440;28;20427;-50
2022/05/19 16:11:32;;;;;;;;;;;24.90;51.20;;;;;;6069507;28;19983;-50
2022/05/19 16:14:34;;;;;;;;;;;24.80;51.20;;;;;;6068460;28;19940;-52
2022/05/19 16:17:35;;;;;;;;;;;24.80;51.10;;;;;;6042808;28;20522;-50
2022/05/19 16:20:37;;;;;;;;;;;24.80;51.20;;;;;;6094673;28;20064;-49
2022/05/19 16:23:39;;;;;;;;;;;24.90;51.20;;;;;;6108626;28;20046;-50
2022/05/19 16:26:41;;;;;;;;;;;24.80;51.00;;;;;;6096585;28;20041;-48
2022/05/19 16:29:44;;;;;;;;;;;24.80;51.00;;;;;;6085010;28;20208;-52
2022/05/19 16:32:45;;;;;;;;;;;24.70;50.90;;;;;;6077526;28;20464;-47
2022/05/19 16:35:46;;;;;;;;;;;24.90;51.60;;;;;;6094433;28;20155;-47
2022/05/19 16:38:49;;;;;;;;;;;24.90;51.00;;;;;;6095226;28;19929;-48
2022/05/19 16:41:51;;;;;;;;;;;25.00;51.00;;;;;;6110126;28;19999;-49
2022/05/19 16:44:52;;;;;;;;;;;24.80;50.80;;;;;;6105694;28;20047;-47
2022/05/19 16:47:57;;;;;;;;;;;25.10;50.90;;;;;;6114428;28;20769;-48
2022/05/19 16:50:58;;;;;;;;;;;25.20;50.90;;;;;;6096918;28;20779;-49
2022/05/19 17:00:38;;;;;;;;;;;25.10;50.80;;;;;;6117525;28;20264;-49
2022/05/19 17:03:40;;;;;;;;;;;25.10;50.70;;;;;;6130335;28;20323;-53
2022/05/19 17:06:41;;;;;;;;;;;25.20;50.80;;;;;;6126061;28;20268;-50
2022/05/19 17:09:43;;;;;;;;;;;25.00;50.60;;;;;;6134443;28;20466;-48
2022/05/19 17:12:45;;;;;;;;;;;25.10;50.60;;;;;;6152057;28;21111;-50
2022/05/19 17:15:47;;;;;;;;;;;25.10;50.60;;;;;;6146397;28;19937;-51
2022/05/19 17:18:48;;;;;;;;;;;25.10;50.60;;;;;;6157525;28;19931;-52
2022/05/19 17:21:49;;;;;;;;;;;25.20;50.50;;;;;;6134010;28;20506;-50
2022/05/19 17:24:51;;;;;;;;;;;25.20;50.60;;;;;;6147602;28;19929;-49
2022/05/19 17:27:53;;;;;;;;;;;25.20;50.50;;;;;;6141026;28;20443;-49
2022/05/19 17:30:54;;;;;;;;;;;25.10;50.40;;;;;;6140357;28;19937;-50
2022/05/19 17:33:55;;;;;;;;;;;25.30;50.60;;;;;;6125490;28;20396;-50
2022/05/19 17:36:57;;;;;;;;;;;25.40;50.70;;;;;;6135103;28;20473;-50
2022/05/19 17:39:59;;;;;;;;;;;25.20;50.50;;;;;;6131250;28;20487;-48
2022/05/19 17:43:01;;;;;;;;;;;25.20;50.60;;;;;;6160019;28;19929;-50
2022/05/19 17:46:07;;;;;;;;;;;25.20;50.60;;;;;;6160551;28;20218;-52
2022/05/19 17:49:09;;;;;;;;;;;25.30;50.60;;;;;;6133410;28;20131;-50
2022/05/19 17:52:10;;;;;;;;;;;25.30;50.60;;;;;;6148744;28;19929;-50
2022/05/19 17:55:12;;;;;;;;;;;25.30;50.70;;;;;;6146982;28;20605;-52
2022/05/19 17:58:14;;;;;;;;;;;25.40;50.60;;;;;;6155059;28;20327;-48
2022/05/19 18:01:15;;;;;;;;;;;25.30;50.40;;;;;;6125383;28;20436;-50
2022/05/19 18:04:18;;;;;;;;;;;25.40;50.40;;;;;;6142140;28;20039;-51
2022/05/19 18:07:21;;;;;;;;;;;25.40;50.40;;;;;;6154355;28;20660;-49
2022/05/19 18:10:24;;;;;;;;;;;25.30;50.30;;;;;;6158247;28;20575;-51
2022/05/19 18:13:25;;;;;;;;;;;25.60;50.50;;;;;;6140494;28;20042;-49
2022/05/19 18:19:43;;;;;;;;;;;25.40;50.60;;;;;;6154533;28;20361;-50
2022/05/19 18:22:44;;;;;;;;;;;25.30;50.60;;;;;;6158622;28;20784;-49
2022/05/19 18:25:52;;;;;;;;;;;25.30;50.60;;;;;;6156377;28;20536;-48
2022/05/19 18:28:53;;;;;;;;;;;25.20;50.60;;;;;;6147093;28;20557;-48
2022/05/19 18:31:55;;;;;;;;;;;25.30;50.70;;;;;;6158848;28;20341;-53
2022/05/19 18:34:57;;;;;;;;;;;25.30;50.60;;;;;;6153754;28;20757;-50